Time;durP1;ratioP1;P1;durP2;ratioP2;P2;SDS_P1;SDS_P2;PMS_P1;PMS_P2;Temp;Humidity;BMP_temperature;BMP_pressure;BME280_temperature;BME280_humidity;BME280_pressure;Samples;Min_cycle;Max_cycle;Signal;HPM_P1;HPM_P2
2021/12/22 00:00:54;;;;;;;29.35;15.93;;;;;;;5.46;55.62;102531.91;5073810;28;20127;-61
2021/12/22 00:03:23;;;;;;;28.52;15.75;;;;;;;5.46;56.16;102528.41;5071354;28;20137;-61
2021/12/22 00:05:52;;;;;;;33.10;15.00;;;;;;;5.44;55.90;102538.38;5077732;28;20080;-61
2021/12/22 00:08:22;;;;;;;31.65;16.90;;;;;;;5.42;55.44;102540.34;5061280;28;20075;-61
2021/12/22 00:10:50;;;;;;;35.03;16.42;;;;;;;5.38;55.90;102545.13;5070509;28;20076;-61
2021/12/22 00:13:18;;;;;;;28.33;16.65;;;;;;;5.41;55.61;102552.84;5077424;28;20053;-61
2021/12/22 00:15:45;;;;;;;34.80;16.90;;;;;;;5.35;56.02;102539.25;5073362;28;20083;-62
2021/12/22 00:18:13;;;;;;;32.60;16.73;;;;;;;5.39;55.58;102541.47;5069545;28;20079;-62
2021/12/22 00:20:42;;;;;;;32.78;15.93;;;;;;;5.38;55.68;102542.47;5083975;28;20052;-61
2021/12/22 00:23:10;;;;;;;32.55;17.48;;;;;;;5.36;56.15;102531.09;5069761;28;20045;-61
2021/12/22 00:25:38;;;;;;;36.42;17.23;;;;;;;5.34;55.88;102535.75;5074189;28;20045;-62
2021/12/22 00:28:06;;;;;;;36.58;17.35;;;;;;;5.35;55.81;102540.09;5078719;28;20080;-61
2021/12/22 00:30:35;;;;;;;32.70;16.45;;;;;;;5.34;55.50;102541.06;5067600;28;20091;-61
2021/12/22 00:33:05;;;;;;;31.45;16.73;;;;;;;5.32;55.39;102544.88;5064476;28;20052;-61
2021/12/22 00:35:40;;;;;;;31.92;17.27;;;;;;;5.31;56.06;102549.38;5063665;28;20510;-62
2021/12/22 00:38:11;;;;;;;33.03;16.70;;;;;;;5.30;55.61;102549.50;5066673;28;20096;-61
2021/12/22 00:40:40;;;;;;;30.17;16.30;;;;;;;5.27;55.95;102545.31;5067960;28;20372;-62
2021/12/22 00:43:08;;;;;;;29.77;15.93;;;;;;;5.30;55.63;102541.50;5069891;28;20462;-62
2021/12/22 00:45:37;;;;;;;32.53;16.02;;;;;;;5.27;55.87;102542.63;5064616;28;20109;-61
2021/12/22 00:48:07;;;;;;;31.42;16.88;;;;;;;5.28;55.65;102536.31;5073058;28;20056;-61
2021/12/22 00:50:36;;;;;;;33.05;17.30;;;;;;;5.27;55.60;102544.47;5078523;28;20052;-61
2021/12/22 00:53:05;;;;;;;32.42;15.10;;;;;;;5.26;55.34;102546.28;5071762;28;20064;-61
2021/12/22 00:55:34;;;;;;;32.58;15.88;;;;;;;5.25;55.81;102539.28;5069718;28;20128;-62
2021/12/22 00:58:03;;;;;;;33.45;15.77;;;;;;;5.24;55.76;102549.09;5067322;28;20056;-62
2021/12/22 01:00:31;;;;;;;33.60;16.30;;;;;;;5.22;55.40;102545.75;5057205;28;20084;-62
2021/12/22 01:03:00;;;;;;;34.72;16.52;;;;;;;5.22;55.71;102540.41;5064257;28;20056;-61
2021/12/22 01:05:28;;;;;;;31.65;15.88;;;;;;;5.21;55.83;102538.72;5071723;28;20105;-61
2021/12/22 01:07:55;;;;;;;31.20;16.83;;;;;;;5.19;55.41;102543.41;5066741;28;20049;-61
2021/12/22 01:10:25;;;;;;;27.90;14.85;;;;;;;5.20;55.65;102541.56;5050137;28;20085;-62
2021/12/22 01:12:56;;;;;;;33.92;17.08;;;;;;;5.18;55.07;102541.72;5069510;28;20068;-61
2021/12/22 01:15:25;;;;;;;35.75;15.02;;;;;;;5.18;55.37;102547.03;5077370;28;20076;-61
2021/12/22 01:18:00;;;;;;;28.20;14.43;;;;;;;5.18;55.44;102538.22;5070502;28;20503;-61
2021/12/22 01:20:32;;;;;;;34.65;15.70;;;;;;;5.17;55.30;102533.88;5062293;28;20071;-61
2021/12/22 01:23:03;;;;;;;31.17;16.35;;;;;;;5.17;55.33;102542.69;5066162;28;20135;-61
2021/12/22 01:25:33;;;;;;;27.95;14.65;;;;;;;5.16;55.11;102542.84;5070248;28;20102;-61
2021/12/22 01:28:02;;;;;;;29.13;15.35;;;;;;;5.14;55.09;102540.31;5073661;28;20084;-61
2021/12/22 01:30:32;;;;;;;34.00;15.82;;;;;;;5.15;55.55;102544.69;5063616;28;20045;-61
2021/12/22 01:33:03;;;;;;;26.98;14.75;;;;;;;5.15;55.46;102536.69;5071426;28;20045;-61
2021/12/22 01:35:34;;;;;;;30.50;15.15;;;;;;;5.13;55.08;102527.16;5064313;28;20049;-61
2021/12/22 01:38:02;;;;;;;30.52;14.20;;;;;;;5.12;55.25;102531.63;5068398;28;20540;-61
2021/12/22 01:40:31;;;;;;;27.48;14.25;;;;;;;5.12;55.52;102520.97;5066511;28;20044;-62
2021/12/22 01:43:01;;;;;;;34.65;17.08;;;;;;;5.10;55.56;102520.28;5074835;28;20137;-61
2021/12/22 01:46:08;;;;;;;30.60;13.95;;;;;;;5.09;55.65;102523.09;5072537;28;20120;-61
2021/12/22 01:51:31;;;;;;;26.80;13.55;;;;;;;5.04;55.11;102528.00;5060620;28;20093;-61
2021/12/22 01:54:04;;;;;;;25.73;13.80;;;;;;;5.06;55.11;102528.72;5069601;28;20056;-61
2021/12/22 01:56:34;;;;;;;26.38;13.13;;;;;;;5.04;55.42;102523.53;5082379;28;20128;-61
2021/12/22 01:59:04;;;;;;;28.50;14.73;;;;;;;5.06;55.60;102520.72;5072980;28;20080;-61
2021/12/22 02:01:35;;;;;;;28.02;13.57;;;;;;;5.03;55.39;102521.00;5069538;28;20091;-61
2021/12/22 02:04:04;;;;;;;28.83;13.98;;;;;;;5.00;55.70;102519.47;5065976;28;20052;-61
2021/12/22 02:06:33;;;;;;;26.67;14.30;;;;;;;5.00;55.16;102524.81;5076728;28;20080;-61
2021/12/22 02:09:00;;;;;;;24.88;14.13;;;;;;;4.99;55.10;102524.94;5080026;28;20075;-61
2021/12/22 02:11:28;;;;;;;28.10;14.65;;;;;;;4.98;55.49;102531.25;5075582;28;20072;-61
2021/12/22 02:13:59;;;;;;;26.75;14.13;;;;;;;4.98;55.53;102531.25;5080311;28;20109;-61
2021/12/22 02:16:32;;;;;;;26.00;13.48;;;;;;;4.97;55.18;102534.91;5077654;28;20076;-61
2021/12/22 02:19:03;;;;;;;25.40;13.15;;;;;;;4.95;55.33;102540.38;5073478;28;20395;-61
2021/12/22 02:21:37;;;;;;;31.65;14.88;;;;;;;4.92;55.08;102538.00;5078682;28;20067;-61
2021/12/22 02:24:05;;;;;;;27.92;13.73;;;;;;;4.96;55.40;102554.53;5071420;28;20049;-61
2021/12/22 02:26:38;;;;;;;25.15;13.75;;;;;;;4.94;54.97;102548.50;5075926;28;20045;-61
2021/12/22 02:29:17;;;;;;;27.05;13.38;;;;;;;4.92;55.14;102547.81;5073123;28;20086;-61
2021/12/22 02:31:49;;;;;;;23.23;12.68;;;;;;;4.90;55.16;102543.47;5064344;28;20104;-61
2021/12/22 02:34:17;;;;;;;39.08;15.68;;;;;;;4.91;55.57;102544.31;5076188;28;20443;-61
2021/12/22 02:36:46;;;;;;;28.33;13.18;;;;;;;4.90;54.99;102547.97;5082464;28;20059;-61
2021/12/22 02:39:13;;;;;;;26.75;13.27;;;;;;;4.88;55.29;102542.78;5073231;28;20498;-62
2021/12/22 02:41:41;;;;;;;24.63;12.38;;;;;;;4.88;55.33;102541.94;5068544;28;20041;-61
2021/12/22 02:44:11;;;;;;;25.50;12.25;;;;;;;4.86;55.00;102536.75;5076826;28;20106;-61
2021/12/22 02:46:40;;;;;;;27.52;12.80;;;;;;;4.86;55.43;102541.22;5071674;28;20048;-61
2021/12/22 02:49:09;;;;;;;23.13;12.30;;;;;;;4.86;55.45;102542.06;5070018;28;20053;-61
2021/12/22 02:51:37;;;;;;;23.83;12.43;;;;;;;4.84;55.50;102535.22;5074967;28;20164;-62
2021/12/22 02:54:12;;;;;;;27.00;13.35;;;;;;;4.85;54.73;102539.56;5073156;28;20072;-61
2021/12/22 02:56:52;;;;;;;26.80;13.15;;;;;;;4.84;54.82;102537.88;5062050;28;20048;-61
2021/12/22 02:59:47;;;;;;;24.70;12.10;;;;;;;4.80;55.71;102529.31;5079026;28;20048;-61
2021/12/22 03:02:28;;;;;;;22.98;12.35;;;;;;;4.80;55.29;102523.16;5077924;28;20045;-61
2021/12/22 03:04:57;;;;;;;23.58;11.82;;;;;;;4.79;55.14;102514.31;5073380;28;20049;-61
2021/12/22 03:07:29;;;;;;;24.30;11.23;;;;;;;4.76;54.92;102511.09;5074114;28;20045;-61
2021/12/22 03:10:01;;;;;;;21.10;10.90;;;;;;;4.78;55.47;102522.47;5067386;28;20085;-62
2021/12/22 03:12:33;;;;;;;23.35;11.63;;;;;;;4.76;54.92;102517.28;5072220;28;20068;-61
2021/12/22 03:15:02;;;;;;;21.98;11.10;;;;;;;4.75;55.17;102526.25;5070274;28;20458;-61
2021/12/22 03:17:29;;;;;;;23.92;10.60;;;;;;;4.77;55.34;102539.44;5072910;28;20079;-61
2021/12/22 03:19:57;;;;;;;20.65;11.48;;;;;;;4.76;55.60;102554.56;5074597;28;20499;-61
2021/12/22 03:22:25;;;;;;;20.65;11.20;;;;;;;4.74;54.83;102545.88;5073176;28;20058;-62
2021/12/22 03:24:53;;;;;;;25.00;13.65;;;;;;;4.75;55.33;102552.03;5084315;28;20076;-61
2021/12/22 03:27:23;;;;;;;19.05;11.02;;;;;;;4.73;54.65;102551.34;5075677;28;20076;-61
2021/12/22 03:29:51;;;;;;;27.20;11.85;;;;;;;4.71;54.94;102547.97;5065166;28;20072;-61
2021/12/22 03:32:19;;;;;;;24.52;10.73;;;;;;;4.71;54.66;102559.47;5069113;28;20048;-61
2021/12/22 03:34:47;;;;;;;26.92;12.02;;;;;;;4.70;55.26;102563.13;5073965;28;20052;-62
2021/12/22 03:37:14;;;;;;;22.92;11.82;;;;;;;4.69;55.54;102558.78;5068857;28;20068;-61
2021/12/22 03:39:42;;;;;;;20.88;10.80;;;;;;;4.69;55.10;102556.09;5077934;28;20057;-61
2021/12/22 03:42:12;;;;;;;25.00;11.68;;;;;;;4.66;54.82;102559.06;5065677;28;20088;-61
2021/12/22 03:44:41;;;;;;;19.60;10.73;;;;;;;4.69;54.44;102556.09;5073471;28;20092;-61
2021/12/22 03:47:09;;;;;;;22.67;10.90;;;;;;;4.68;54.46;102557.09;5066893;28;20056;-61
2021/12/22 03:49:37;;;;;;;22.58;11.80;;;;;;;4.66;54.87;102553.72;5068944;28;20168;-61
2021/12/22 03:52:06;;;;;;;25.45;12.10;;;;;;;4.66;54.76;102547.56;5077348;28;20114;-61
2021/12/22 03:54:34;;;;;;;19.95;10.27;;;;;;;4.64;55.31;102545.03;5065429;28;20084;-61
2021/12/22 03:57:02;;;;;;;21.95;11.15;;;;;;;4.63;55.12;102545.19;5066274;28;20052;-61
2021/12/22 03:59:30;;;;;;;23.98;11.57;;;;;;;4.64;54.51;102544.19;5069510;28;20484;-61
2021/12/22 04:01:59;;;;;;;21.10;11.00;;;;;;;4.63;54.93;102547.84;5066244;28;20049;-61
2021/12/22 04:04:27;;;;;;;23.58;10.30;;;;;;;4.61;54.72;102539.16;5073343;28;20052;-61
2021/12/22 04:06:55;;;;;;;20.88;10.55;;;;;;;4.60;54.72;102550.78;5075880;28;20103;-61
2021/12/22 04:09:27;;;;;;;21.42;10.50;;;;;;;4.60;54.63;102546.31;5077707;28;20076;-61
2021/12/22 04:11:55;;;;;;;18.75;10.23;;;;;;;4.58;55.25;102548.28;5070839;28;20060;-61
2021/12/22 04:14:23;;;;;;;22.70;10.18;;;;;;;4.57;55.20;102546.59;5066576;28;20052;-62
2021/12/22 04:16:51;;;;;;;17.83;9.73;;;;;;;4.57;54.30;102549.25;5068677;28;20493;-62
2021/12/22 04:19:20;;;;;;;20.90;10.10;;;;;;;4.56;54.42;102551.06;5081871;28;20052;-62
2021/12/22 04:21:49;;;;;;;19.55;10.50;;;;;;;4.55;54.50;102545.88;5077815;28;20049;-62
2021/12/22 04:24:17;;;;;;;19.98;10.40;;;;;;;4.54;55.22;102542.38;5076279;28;20064;-61
2021/12/22 04:26:45;;;;;;;19.23;10.88;;;;;;;4.54;54.66;102528.22;5070859;28;20067;-61
2021/12/22 04:29:13;;;;;;;21.67;11.13;;;;;;;4.53;54.44;102526.56;5078064;28;20053;-62
2021/12/22 04:31:41;;;;;;;17.05;9.45;;;;;;;4.51;54.57;102523.19;5067440;28;20360;-62
2021/12/22 04:34:09;;;;;;;20.23;10.98;;;;;;;4.51;54.50;102523.19;5070454;28;20041;-62
2021/12/22 04:36:39;;;;;;;18.88;9.15;;;;;;;4.50;54.62;102529.50;5069064;28;20087;-61
2021/12/22 04:39:09;;;;;;;18.20;10.07;;;;;;;4.47;55.20;102530.63;5072465;28;20155;-62
2021/12/22 04:41:36;;;;;;;19.48;9.77;;;;;;;4.47;55.01;102524.44;5065074;28;20076;-62
2021/12/22 04:44:05;;;;;;;18.02;10.38;;;;;;;4.46;55.22;102520.09;5064169;28;20045;-62
2021/12/22 04:46:33;;;;;;;22.05;10.55;;;;;;;4.46;54.45;102514.78;5073886;28;20048;-62
2021/12/22 04:49:03;;;;;;;19.77;9.70;;;;;;;4.46;55.41;102512.13;5061959;28;20140;-61
2021/12/22 04:51:33;;;;;;;17.30;9.30;;;;;;;4.44;55.14;102525.56;5070696;28;20092;-62
2021/12/22 04:54:06;;;;;;;19.00;10.18;;;;;;;4.43;54.94;102520.38;5070595;28;20159;-61
2021/12/22 04:56:34;;;;;;;17.98;9.95;;;;;;;4.44;54.47;102522.06;5053884;28;20106;-62
2021/12/22 04:59:02;;;;;;;19.60;10.07;;;;;;;4.42;55.09;102524.88;5065834;28;20112;-61
2021/12/22 05:01:30;;;;;;;20.02;8.90;;;;;;;4.41;55.37;102527.69;5070006;28;20075;-62
2021/12/22 05:03:58;;;;;;;18.98;9.50;;;;;;;4.40;54.72;102524.19;5077213;28;20047;-61
2021/12/22 05:06:26;;;;;;;16.75;9.27;;;;;;;4.41;54.71;102517.03;5071448;28;20070;-61
2021/12/22 05:08:54;;;;;;;16.52;9.02;;;;;;;4.40;54.35;102524.19;5072135;28;20052;-62
2021/12/22 05:11:24;;;;;;;19.38;9.80;;;;;;;4.39;54.62;102516.31;5066384;28;20044;-61
2021/12/22 05:13:52;;;;;;;20.52;9.85;;;;;;;4.37;54.50;102507.63;5072812;28;20076;-61
2021/12/22 05:16:19;;;;;;;19.75;9.38;;;;;;;4.36;55.00;102512.13;5070868;28;20139;-61
2021/12/22 05:18:52;;;;;;;21.50;9.32;;;;;;;4.36;54.53;102511.28;5080669;28;20056;-61
2021/12/22 05:21:21;;;;;;;18.50;9.43;;;;;;;4.32;54.56;102497.41;5067724;28;20082;-61
2021/12/22 05:23:49;;;;;;;16.25;9.50;;;;;;;4.33;54.56;102504.41;5066542;28;20060;-61
2021/12/22 05:26:19;;;;;;;17.25;8.82;;;;;;;4.33;54.99;102507.09;5079368;28;20061;-61
2021/12/22 05:28:48;;;;;;;14.52;7.75;;;;;;;4.30;55.06;102504.69;5077014;28;20083;-61
2021/12/22 05:31:16;;;;;;;16.52;9.02;;;;;;;4.33;54.59;102508.91;5072457;28;20041;-61
2021/12/22 05:33:44;;;;;;;18.27;8.77;;;;;;;4.36;54.91;102506.81;5064584;28;20053;-61
2021/12/22 05:36:11;;;;;;;15.93;8.68;;;;;;;4.46;54.52;102512.13;5069835;28;20045;-61
2021/12/22 05:38:39;;;;;;;20.50;9.23;;;;;;;4.57;53.72;102506.66;5069248;28;20072;-61
2021/12/22 05:41:07;;;;;;;15.95;9.23;;;;;;;4.70;53.43;102507.19;5062693;28;20068;-61
2021/12/22 05:43:35;;;;;;;15.77;8.88;;;;;;;4.84;53.04;102505.91;5073694;28;20154;-61
2021/12/22 05:46:04;;;;;;;17.55;9.27;;;;;;;4.93;53.59;102490.88;5071615;28;20060;-61
2021/12/22 05:48:32;;;;;;;17.33;8.27;;;;;;;5.01;53.17;102488.34;5067839;28;20040;-61
2021/12/22 05:51:01;;;;;;;18.83;8.38;;;;;;;4.98;53.24;102488.63;5074452;28;20090;-61
2021/12/22 05:53:30;;;;;;;22.02;9.00;;;;;;;4.90;52.33;102484.84;5072321;28;20060;-61
2021/12/22 05:55:58;;;;;;;14.85;8.02;;;;;;;4.85;53.02;102487.13;5066962;28;20518;-61
2021/12/22 05:58:27;;;;;;;16.90;7.95;;;;;;;4.76;53.67;102477.31;5066688;28;20072;-61
2021/12/22 06:00:55;;;;;;;14.15;8.07;;;;;;;4.67;53.42;102488.00;5066389;28;20052;-61
2021/12/22 06:03:24;;;;;;;18.92;8.30;;;;;;;4.61;53.99;102478.75;5067432;28;20044;-61
2021/12/22 06:05:52;;;;;;;13.98;7.18;;;;;;;4.55;54.03;102488.16;5060155;28;20055;-61
2021/12/22 06:08:20;;;;;;;13.50;7.68;;;;;;;4.51;54.17;102484.09;4364482;28;10000818;-62
2021/12/22 06:10:47;;;;;;;19.00;9.43;;;;;;;4.48;54.11;102483.53;5069230;28;20084;-61
2021/12/22 06:13:15;;;;;;;13.88;8.18;;;;;;;4.42;54.19;102492.09;5073832;28;20084;-62
2021/12/22 06:15:43;;;;;;;14.13;8.63;;;;;;;4.38;54.75;102485.38;5068881;28;20060;-62
2021/12/22 06:18:11;;;;;;;13.77;7.32;;;;;;;4.36;54.31;102479.34;5069379;28;20060;-62
2021/12/22 06:20:40;;;;;;;12.15;7.32;;;;;;;4.34;54.16;102476.81;5064408;28;20059;-63
2021/12/22 06:23:07;;;;;;;16.15;7.70;;;;;;;4.31;54.97;102479.75;5073272;28;20063;-63
2021/12/22 06:25:36;;;;;;;17.15;7.85;;;;;;;4.29;54.61;102487.06;5071763;28;20079;-63
2021/12/22 06:28:04;;;;;;;17.23;7.95;;;;;;;4.28;54.32;102482.72;5073498;28;20048;-62
2021/12/22 06:30:32;;;;;;;13.65;7.55;;;;;;;4.25;54.25;102494.47;5063024;28;20173;-61
2021/12/22 06:33:00;;;;;;;14.25;7.88;;;;;;;4.23;54.17;102483.13;5062718;28;20122;-61
2021/12/22 06:35:28;;;;;;;15.50;7.03;;;;;;;4.23;54.80;102492.94;5058923;28;20061;-61
2021/12/22 06:37:57;;;;;;;15.68;7.88;;;;;;;4.23;53.88;102490.28;5070472;28;20131;-60
2021/12/22 06:40:25;;;;;;;16.60;7.25;;;;;;;4.20;54.11;102491.41;5070281;28;20052;-60
2021/12/22 06:42:52;;;;;;;13.38;7.32;;;;;;;4.18;54.63;102497.84;5067467;28;20091;-60
2021/12/22 06:45:22;;;;;;;18.98;7.78;;;;;;;4.17;54.88;102490.84;5065626;28;20044;-60
2021/12/22 06:47:50;;;;;;;14.88;7.28;;;;;;;4.16;55.04;102490.00;5062214;28;20064;-60
2021/12/22 06:50:18;;;;;;;15.43;7.25;;;;;;;4.17;54.84;102498.81;5068722;28;20122;-60
2021/12/22 06:52:45;;;;;;;15.88;7.75;;;;;;;4.15;54.31;102496.28;5061110;28;20056;-60
2021/12/22 06:55:15;;;;;;;15.43;8.18;;;;;;;4.14;54.15;102499.09;5067371;28;20095;-60
2021/12/22 06:57:42;;;;;;;15.70;7.65;;;;;;;4.12;55.07;102496.56;5065041;28;20076;-60
2021/12/22 07:00:12;;;;;;;18.58;7.20;;;;;;;4.11;54.37;102496.72;5055246;28;20049;-62
2021/12/22 07:02:41;;;;;;;15.65;8.25;;;;;;;4.10;54.53;102503.00;5067534;28;20095;-60
2021/12/22 07:05:11;;;;;;;13.63;7.55;;;;;;;4.10;54.43;102508.34;5068351;28;20086;-61
2021/12/22 07:07:40;;;;;;;15.38;7.47;;;;;;;4.08;54.54;102497.00;5070451;28;20131;-60
2021/12/22 07:10:11;;;;;;;13.82;6.88;;;;;;;4.05;54.64;102492.78;5068371;28;20056;-60
2021/12/22 07:12:42;;;;;;;14.07;6.72;;;;;;;4.08;53.97;102502.31;5071007;28;20592;-61
2021/12/22 07:15:12;;;;;;;15.27;7.20;;;;;;;4.09;53.99;102501.34;5071592;28;20087;-60
2021/12/22 07:17:41;;;;;;;15.38;7.50;;;;;;;4.06;54.53;102494.47;5054973;28;20107;-60
2021/12/22 07:20:10;;;;;;;18.25;8.23;;;;;;;4.03;55.05;102497.41;5063669;28;20080;-61
2021/12/22 07:22:37;;;;;;;14.63;7.32;;;;;;;4.02;54.95;102498.38;5069079;28;20560;-60
2021/12/22 07:25:07;;;;;;;17.70;6.85;;;;;;;4.03;55.04;102493.91;5065500;28;20103;-60
2021/12/22 07:27:35;;;;;;;13.60;7.15;;;;;;;4.05;55.05;102491.94;5064641;28;20076;-60
2021/12/22 07:30:06;;;;;;;15.23;6.40;;;;;;;4.15;54.66;102496.28;5060632;28;20084;-60
2021/12/22 07:32:33;;;;;;;12.27;6.43;;;;;;;4.28;54.19;102498.69;5064240;28;20510;-60
2021/12/22 07:35:06;;;;;;;13.55;6.60;;;;;;;4.45;53.33;102497.97;5061340;28;20045;-61
2021/12/22 07:37:42;;;;;;;14.30;7.10;;;;;;;4.58;53.05;102497.69;5068479;28;20064;-60
2021/12/22 07:40:13;;;;;;;13.68;6.47;;;;;;;4.73;53.09;102492.75;5065242;28;20056;-61
2021/12/22 07:42:41;;;;;;;14.82;7.32;;;;;;;4.88;52.05;102496.66;5081143;28;20048;-60
2021/12/22 07:45:11;;;;;;;14.35;6.57;;;;;;;5.01;52.06;102494.50;5078709;28;20139;-60
2021/12/22 07:47:39;;;;;;;13.57;7.07;;;;;;;5.16;50.84;102494.88;5060689;28;20108;-61
2021/12/22 07:50:09;;;;;;;15.50;7.88;;;;;;;5.24;50.64;102481.63;5070733;28;20049;-60
2021/12/22 07:52:36;;;;;;;17.88;7.53;;;;;;;5.36;50.81;102491.13;5059429;28;20084;-61
2021/12/22 07:55:05;;;;;;;13.48;7.10;;;;;;;5.45;50.67;102486.72;5072348;28;20083;-61
2021/12/22 07:57:33;;;;;;;17.27;8.07;;;;;;;5.49;50.58;102490.78;5063989;28;20045;-61
2021/12/22 08:00:01;;;;;;;12.52;7.07;;;;;;;5.54;50.09;102489.34;5060576;28;20103;-61
2021/12/22 08:02:30;;;;;;;14.88;7.18;;;;;;;5.48;50.60;102483.75;5060086;28;20081;-61
2021/12/22 08:04:58;;;;;;;19.55;6.85;;;;;;;5.26;50.46;102492.16;5074629;28;20451;-61
2021/12/22 08:07:25;;;;;;;17.20;7.32;;;;;;;5.08;51.17;102495.59;5078084;28;20075;-61
2021/12/22 08:09:53;;;;;;;14.15;6.28;;;;;;;4.93;51.37;102493.53;5080468;28;20095;-61
2021/12/22 08:12:21;;;;;;;18.80;8.23;;;;;;;4.80;52.33;102493.84;5080015;28;20124;-61
2021/12/22 08:14:48;;;;;;;13.45;7.72;;;;;;;4.69;51.99;102486.03;5080572;28;20048;-60
2021/12/22 08:17:16;;;;;;;11.90;6.32;;;;;;;4.59;52.57;102488.72;5068035;28;20113;-61
2021/12/22 08:19:45;;;;;;;19.83;7.82;;;;;;;4.54;52.83;102490.97;5073848;28;20073;-60
2021/12/22 08:22:13;;;;;;;13.30;7.45;;;;;;;4.46;53.57;102489.00;5075481;28;20595;-61
2021/12/22 08:24:41;;;;;;;17.08;7.55;;;;;;;4.42;52.81;102487.59;5084010;28;20055;-60
2021/12/22 08:27:08;;;;;;;13.23;8.73;;;;;;;4.37;53.06;102492.50;5083625;28;20067;-61
2021/12/22 08:29:41;;;;;;;14.80;7.35;;;;;;;4.30;54.04;102480.75;5078240;28;20056;-63
2021/12/22 08:32:09;;;;;;;11.82;6.85;;;;;;;4.28;53.95;102493.34;5083279;28;20049;-62
2021/12/22 08:34:41;;;;;;;12.40;7.00;;;;;;;4.24;53.94;102490.13;5084270;28;20110;-63
2021/12/22 08:39:57;;;;;;;13.93;6.63;;;;;;;4.14;54.06;102489.28;5083698;28;20052;-62
2021/12/22 08:42:26;;;;;;;14.48;6.28;;;;;;;4.13;54.82;102492.09;5083525;28;20082;-62
2021/12/22 08:44:53;;;;;;;16.05;7.10;;;;;;;4.12;54.48;102485.09;5069635;28;20048;-61
2021/12/22 08:47:22;;;;;;;14.02;7.05;;;;;;;4.17;54.33;102489.00;5082994;28;20052;-61
2021/12/22 08:49:50;;;;;;;21.98;7.40;;;;;;;4.32;53.79;102494.75;5069066;28;20072;-61
2021/12/22 08:52:19;;;;;;;14.73;7.20;;;;;;;4.48;53.60;102489.69;5072727;28;20355;-61
2021/12/22 08:54:47;;;;;;;12.48;6.55;;;;;;;4.64;53.03;102489.13;5081092;28;20055;-61
2021/12/22 08:57:14;;;;;;;13.18;6.65;;;;;;;4.75;52.80;102486.28;5071797;28;20075;-61
2021/12/22 08:59:42;;;;;;;16.25;7.32;;;;;;;4.89;52.32;102488.50;5081425;28;20055;-61
2021/12/22 09:02:10;;;;;;;15.07;7.00;;;;;;;5.05;52.25;102479.91;5082829;28;20065;-61
2021/12/22 09:04:38;;;;;;;10.68;5.95;;;;;;;5.19;51.31;102483.91;5083578;28;20056;-62
2021/12/22 09:07:07;;;;;;;11.68;6.93;;;;;;;5.31;51.19;102484.53;5083073;28;20078;-62
2021/12/22 09:09:38;;;;;;;13.32;6.32;;;;;;;5.42;51.05;102482.53;5083385;28;20048;-61
2021/12/22 09:12:06;;;;;;;12.43;6.78;;;;;;;5.52;50.70;102485.97;5079295;28;20061;-62
2021/12/22 09:14:35;;;;;;;11.23;6.28;;;;;;;5.55;50.87;102485.69;5063864;28;20115;-62
2021/12/22 09:17:04;;;;;;;10.88;6.55;;;;;;;5.59;50.55;102482.72;5079342;28;20048;-62
2021/12/22 09:19:32;;;;;;;14.20;6.53;;;;;;;5.65;50.89;102476.78;5077594;28;20057;-62
2021/12/22 09:22:00;;;;;;;12.90;6.28;;;;;;;5.55;50.69;102488.34;5077652;28;20541;-61
2021/12/22 09:24:27;;;;;;;14.05;7.63;;;;;;;5.42;51.44;102487.84;5083235;28;20075;-61
2021/12/22 09:26:57;;;;;;;13.73;6.97;;;;;;;5.24;52.08;102474.47;5078300;28;20072;-65
2021/12/22 09:29:26;;;;;;;13.02;6.88;;;;;;;5.08;51.89;102481.44;5075522;28;20083;-63
2021/12/22 09:31:54;;;;;;;13.98;6.50;;;;;;;4.93;52.81;102480.22;5082492;28;20045;-63
2021/12/22 09:34:22;;;;;;;12.80;6.80;;;;;;;4.83;53.17;102482.91;5083383;28;20055;-63
2021/12/22 09:36:50;;;;;;;14.80;6.15;;;;;;;4.75;53.09;102477.47;5083331;28;20064;-63
2021/12/22 09:39:17;;;;;;;12.88;7.10;;;;;;;4.67;53.30;102480.84;5083016;28;20144;-62
2021/12/22 09:41:46;;;;;;;14.60;6.60;;;;;;;4.61;54.16;102473.44;5077767;28;20056;-64
2021/12/22 09:44:15;;;;;;;11.77;6.50;;;;;;;4.57;53.85;102475.53;5074761;28;20055;-63
2021/12/22 09:46:44;;;;;;;12.30;7.03;;;;;;;4.52;54.03;102469.81;5082447;28;20045;-67
2021/12/22 09:49:36;;;;;;;10.75;6.53;;;;;;;4.48;54.29;102470.22;5075209;28;20045;-61
2021/12/22 09:52:18;;;;;;;14.90;7.22;;;;;;;4.44;54.83;102461.69;5062401;28;20080;-60
2021/12/22 09:54:47;;;;;;;13.60;7.30;;;;;;;4.41;54.52;102467.28;5078572;28;20048;-61
2021/12/22 09:57:17;;;;;;;15.18;6.30;;;;;;;4.38;55.18;102470.25;5083017;28;20048;-61
2021/12/22 09:59:47;;;;;;;14.20;7.32;;;;;;;4.35;55.44;102467.03;5082388;28;20045;-61
2021/12/22 10:02:17;;;;;;;11.45;6.53;;;;;;;4.35;55.03;102469.69;5075174;28;20063;-61
2021/12/22 10:04:46;;;;;;;12.48;6.93;;;;;;;4.34;55.60;102462.69;5083174;28;20045;-61
2021/12/22 10:07:19;;;;;;;10.90;6.53;;;;;;;4.31;55.77;102466.47;5078404;28;20092;-61
2021/12/22 10:09:49;;;;;;;10.55;6.22;;;;;;;4.29;55.58;102472.91;5072897;28;20052;-61
2021/12/22 10:12:19;;;;;;;11.02;5.93;;;;;;;4.27;55.49;102469.53;5082500;28;20060;-61
2021/12/22 10:14:52;;;;;;;15.13;7.22;;;;;;;4.28;55.67;102466.75;5083133;28;20104;-60
2021/12/22 10:17:31;;;;;;;14.70;6.80;;;;;;;4.27;55.96;102448.25;5082190;28;20076;-62
2021/12/22 10:20:00;;;;;;;14.38;7.07;;;;;;;4.32;55.90;102451.34;5075531;28;20056;-61
2021/12/22 10:22:36;;;;;;;13.13;6.28;;;;;;;4.49;55.61;102450.63;5070500;28;20084;-62
2021/12/22 10:25:10;;;;;;;13.38;7.05;;;;;;;4.66;55.02;102446.38;5082376;28;20048;-61
2021/12/22 10:27:41;;;;;;;10.93;6.43;;;;;;;4.83;54.98;102445.63;5082846;28;20133;-62
2021/12/22 10:30:25;;;;;;;13.07;6.78;;;;;;;5.00;54.07;102441.38;5082693;28;20467;-61
2021/12/22 10:33:06;;;;;;;13.65;6.70;;;;;;;5.18;53.56;102439.59;5082932;28;20044;-62
2021/12/22 10:35:35;;;;;;;10.23;6.07;;;;;;;5.27;53.11;102444.00;5068843;28;20068;-62
2021/12/22 10:38:03;;;;;;;13.68;5.97;;;;;;;5.26;52.90;102437.00;5082682;28;20048;-61
2021/12/22 10:40:34;;;;;;;9.82;6.30;;;;;;;5.17;53.49;102443.25;5085659;28;20052;-62
2021/12/22 10:43:03;;;;;;;14.63;6.68;;;;;;;5.06;54.08;102436.28;5086611;28;20485;-62
2021/12/22 10:45:35;;;;;;;12.77;7.57;;;;;;;4.96;54.17;102434.66;5085381;28;20049;-62
2021/12/22 10:50:56;;;;;;;15.38;6.57;;;;;;;4.81;54.65;102423.63;5069897;28;20048;-62
2021/12/22 10:53:24;;;;;;;10.90;5.78;;;;;;;4.75;55.44;102418.88;5072476;28;20052;-61
2021/12/22 10:55:54;;;;;;;12.18;6.22;;;;;;;4.71;55.37;102423.66;5085845;28;20049;-61
2021/12/22 10:58:26;;;;;;;11.25;6.22;;;;;;;4.69;55.19;102409.66;5086023;28;20080;-61
2021/12/22 11:01:07;;;;;;;9.55;5.10;;;;;;;4.66;55.37;102409.94;5084927;28;20467;-62
2021/12/22 11:03:40;;;;;;;8.93;5.70;;;;;;;4.63;55.42;102404.91;5084698;28;20056;-62
2021/12/22 11:06:15;;;;;;;12.55;6.13;;;;;;;4.62;55.45;102403.22;5074508;28;20082;-61
2021/12/22 11:08:53;;;;;;;13.48;6.10;;;;;;;4.60;55.66;102397.19;5084994;28;20044;-61
2021/12/22 11:11:21;;;;;;;8.50;5.57;;;;;;;4.58;55.95;102396.50;5084975;28;20052;-62
2021/12/22 11:14:03;;;;;;;9.98;5.95;;;;;;;4.56;56.59;102383.34;5085733;28;20079;-62
2021/12/22 11:16:32;;;;;;;9.82;5.60;;;;;;;4.56;55.79;102391.31;5084671;28;20048;-61
2021/12/22 11:19:10;;;;;;;12.90;5.97;;;;;;;4.56;56.51;102393.97;5078683;28;20048;-61
2021/12/22 11:21:53;;;;;;;8.23;4.68;;;;;;;4.54;56.00;102397.78;5077634;28;20098;-62
2021/12/22 11:24:21;;;;;;;10.60;4.95;;;;;;;4.53;56.25;102391.59;5085507;28;20079;-61
2021/12/22 11:26:49;;;;;;;9.18;5.22;;;;;;;4.54;56.11;102395.13;5084851;28;20048;-61
2021/12/22 11:29:17;;;;;;;11.88;5.40;;;;;;;4.54;56.59;102389.78;5085568;28;20048;-61
2021/12/22 11:31:47;;;;;;;12.15;6.53;;;;;;;4.53;57.00;102388.94;5084402;28;20083;-61
2021/12/22 11:34:15;;;;;;;13.02;6.03;;;;;;;4.55;56.19;102388.81;5063605;28;20088;-61
2021/12/22 11:36:44;;;;;;;9.88;5.65;;;;;;;4.53;56.66;102386.28;5080600;28;20072;-62
2021/12/22 11:39:12;;;;;;;10.98;5.70;;;;;;;4.53;56.68;102388.94;5084615;28;20063;-61
2021/12/22 11:41:43;;;;;;;9.85;5.18;;;;;;;4.53;57.09;102388.13;5084200;28;20065;-61